Kudat, Malaysia

2:36 AM MYT on February 07, 2016 (GMT +0800)
Kudat | | Change Station
CLOSE
Current Station
Airport
Location: Kudat,
Elevation: 16 ft
Nearby Weather Stations

Elev 16 ft 6.92 °N, 116.84 °E | Updated 36 minutes ago

Mostly Cloudy
Mostly Cloudy
79 °F
Feels Like 79 °F
N
5
Wind Variable Wind from North

Today
High -- | Low -- °F
--% Chance of Precip.
Yesterday
High -- | Low -- °F
Precip. -- in
Pressure 29.86 in
Visibility 6.2 miles
Clouds Few 1600 ft
Mostly Cloudy 28000 ft
Dew Point 75 °F
Humidity 89%
Rainfall 0.00 in
Snow Depth Not available.
6:31 AM 6:22 PM
Waning Crescent, 4% visible
METAR WBKT 061800Z 36004KT 9999 FEW016 BKN280 26/24 Q1011
Pressure 29.86 in
Visibility 6.2 miles
Clouds Few 1600 ft
Mostly Cloudy 28000 ft
Dew Point 75 °F
Humidity 89%
Rainfall 0.00 in
Snow Depth Not available.
6:31 AM 6:22 PM
Waning Crescent, 4% visible
METAR WBKT 061800Z 36004KT 9999 FEW016 BKN280 26/24 Q1011

10-Day Weather Forecast

No radar image for this location.
×

Almanac

Astronomy

Feb. 07, 2016 Rise Set
Actual Time
Civil Twilight
Nautical Twilight
Astronomical Twilight
Moon
Length of Visible Light
Length of Day
Tomorrow will be .
, % of the Moon is Illuminated

Today's Extremes

Country Highs Country Lows

Community

WunderPhotos

Upload Photos

1,891,032 photos uploaded!

WunderBlog® & News

Nearby

Air Quality

  Air Quality AQ Index Pollutant
Not available.

Snow Depth

Station Depth Elevation

Earthquake Activity

City Distance Mag. Time & Date
Minimum magnitude displayed is 2.5.

Coastal Water Temperatures

Place Temperature

Stations

Nearby Weather Stations

Station Location Temp. Windchill Dew Point Humidity Wind Precip. Elev Updated Type